sensor_id;sensor_type;location;lat;lon;timestamp;P1;durP1;ratioP1;P2;durP2;ratioP2
49556;SDS011;35462;45.048;7.666;2023-09-07T00:07:36;7.03;;;3.85;;
49556;SDS011;35462;45.048;7.666;2023-09-07T00:22:55;6.75;;;4.57;;
49556;SDS011;35462;45.048;7.666;2023-09-07T00:38:15;5.30;;;3.90;;
49556;SDS011;35462;45.048;7.666;2023-09-07T00:53:36;6.25;;;3.60;;
49556;SDS011;35462;45.048;7.666;2023-09-07T01:08:57;6.18;;;4.03;;
49556;SDS011;35462;45.048;7.666;2023-09-07T01:24:19;7.68;;;4.03;;
49556;SDS011;35462;45.048;7.666;2023-09-07T01:39:40;4.38;;;3.58;;
49556;SDS011;35462;45.048;7.666;2023-09-07T01:55:00;10.57;;;5.50;;
49556;SDS011;35462;45.048;7.666;2023-09-07T02:10:20;9.48;;;6.53;;
49556;SDS011;35462;45.048;7.666;2023-09-07T02:25:43;11.98;;;6.82;;
49556;SDS011;35462;45.048;7.666;2023-09-07T02:41:02;14.07;;;8.18;;
49556;SDS011;35462;45.048;7.666;2023-09-07T02:56:21;8.18;;;6.07;;
49556;SDS011;35462;45.048;7.666;2023-09-07T03:11:41;6.88;;;4.15;;
49556;SDS011;35462;45.048;7.666;2023-09-07T03:27:01;5.68;;;3.63;;
49556;SDS011;35462;45.048;7.666;2023-09-07T03:42:20;5.90;;;3.88;;
49556;SDS011;35462;45.048;7.666;2023-09-07T03:57:39;5.57;;;4.22;;
49556;SDS011;35462;45.048;7.666;2023-09-07T04:12:59;7.10;;;4.68;;
49556;SDS011;35462;45.048;7.666;2023-09-07T04:28:18;8.60;;;4.70;;
49556;SDS011;35462;45.048;7.666;2023-09-07T04:43:39;9.10;;;5.57;;
49556;SDS011;35462;45.048;7.666;2023-09-07T04:59:00;8.35;;;5.80;;
49556;SDS011;35462;45.048;7.666;2023-09-07T05:14:19;6.25;;;4.85;;
49556;SDS011;35462;45.048;7.666;2023-09-07T05:29:39;7.72;;;4.78;;
49556;SDS011;35462;45.048;7.666;2023-09-07T05:44:58;8.30;;;4.95;;
49556;SDS011;35462;45.048;7.666;2023-09-07T06:00:18;7.25;;;4.80;;
49556;SDS011;35462;45.048;7.666;2023-09-07T06:15:38;8.23;;;5.40;;
49556;SDS011;35462;45.048;7.666;2023-09-07T06:30:57;9.20;;;6.20;;
49556;SDS011;35462;45.048;7.666;2023-09-07T06:46:17;11.40;;;6.10;;
49556;SDS011;35462;45.048;7.666;2023-09-07T07:01:37;9.15;;;5.90;;
49556;SDS011;35462;45.048;7.666;2023-09-07T07:16:57;8.15;;;5.10;;
49556;SDS011;35462;45.048;7.666;2023-09-07T07:32:17;9.90;;;6.35;;
49556;SDS011;35462;45.048;7.666;2023-09-07T07:47:37;8.35;;;4.03;;
49556;SDS011;35462;45.048;7.666;2023-09-07T08:02:56;8.25;;;6.20;;
49556;SDS011;35462;45.048;7.666;2023-09-07T08:18:16;6.40;;;4.45;;
49556;SDS011;35462;45.048;7.666;2023-09-07T08:33:36;6.88;;;4.68;;
49556;SDS011;35462;45.048;7.666;2023-09-07T08:48:59;8.93;;;5.25;;
49556;SDS011;35462;45.048;7.666;2023-09-07T09:04:20;6.35;;;4.35;;
49556;SDS011;35462;45.048;7.666;2023-09-07T09:19:41;5.60;;;3.83;;
49556;SDS011;35462;45.048;7.666;2023-09-07T09:35:01;9.10;;;3.83;;
49556;SDS011;35462;45.048;7.666;2023-09-07T09:50:22;5.20;;;3.45;;
49556;SDS011;35462;45.048;7.666;2023-09-07T10:05:43;7.15;;;3.50;;
49556;SDS011;35462;45.048;7.666;2023-09-07T10:21:04;4.75;;;3.58;;
49556;SDS011;35462;45.048;7.666;2023-09-07T10:36:25;8.68;;;4.95;;
49556;SDS011;35462;45.048;7.666;2023-09-07T10:51:46;8.10;;;4.68;;
49556;SDS011;35462;45.048;7.666;2023-09-07T11:07:07;7.68;;;4.88;;
49556;SDS011;35462;45.048;7.666;2023-09-07T11:22:26;7.63;;;4.80;;
49556;SDS011;35462;45.048;7.666;2023-09-07T11:37:51;5.38;;;4.05;;
49556;SDS011;35462;45.048;7.666;2023-09-07T11:53:11;5.33;;;3.83;;
49556;SDS011;35462;45.048;7.666;2023-09-07T12:08:31;9.45;;;4.57;;
49556;SDS011;35462;45.048;7.666;2023-09-07T12:23:50;7.88;;;4.43;;
49556;SDS011;35462;45.048;7.666;2023-09-07T12:39:10;7.65;;;4.15;;
49556;SDS011;35462;45.048;7.666;2023-09-07T12:54:31;11.32;;;4.55;;
49556;SDS011;35462;45.048;7.666;2023-09-07T13:09:51;15.98;;;6.28;;
49556;SDS011;35462;45.048;7.666;2023-09-07T13:25:10;6.28;;;3.88;;
49556;SDS011;35462;45.048;7.666;2023-09-07T13:40:30;8.52;;;4.45;;
49556;SDS011;35462;45.048;7.666;2023-09-07T13:55:49;7.20;;;3.92;;
49556;SDS011;35462;45.048;7.666;2023-09-07T14:11:09;5.85;;;3.65;;
49556;SDS011;35462;45.048;7.666;2023-09-07T14:26:29;4.30;;;3.38;;
49556;SDS011;35462;45.048;7.666;2023-09-07T14:41:48;5.88;;;3.40;;
49556;SDS011;35462;45.048;7.666;2023-09-07T14:57:09;7.03;;;4.20;;
49556;SDS011;35462;45.048;7.666;2023-09-07T15:12:28;6.68;;;3.65;;
49556;SDS011;35462;45.048;7.666;2023-09-07T15:27:48;6.60;;;3.50;;
49556;SDS011;35462;45.048;7.666;2023-09-07T15:43:07;6.30;;;3.30;;
49556;SDS011;35462;45.048;7.666;2023-09-07T15:58:27;5.13;;;2.97;;
49556;SDS011;35462;45.048;7.666;2023-09-07T16:13:46;6.30;;;4.15;;
49556;SDS011;35462;45.048;7.666;2023-09-07T16:29:06;8.15;;;4.45;;
49556;SDS011;35462;45.048;7.666;2023-09-07T16:44:25;8.20;;;4.40;;
49556;SDS011;35462;45.048;7.666;2023-09-07T16:59:45;5.05;;;2.97;;
49556;SDS011;35462;45.048;7.666;2023-09-07T17:15:05;6.25;;;3.10;;
49556;SDS011;35462;45.048;7.666;2023-09-07T17:30:25;5.45;;;3.33;;
49556;SDS011;35462;45.048;7.666;2023-09-07T17:45:45;6.30;;;3.08;;
49556;SDS011;35462;45.048;7.666;2023-09-07T18:01:04;8.00;;;3.13;;
49556;SDS011;35462;45.048;7.666;2023-09-07T18:16:28;5.38;;;3.38;;
49556;SDS011;35462;45.048;7.666;2023-09-07T18:31:49;5.10;;;3.70;;
49556;SDS011;35462;45.048;7.666;2023-09-07T18:47:09;5.65;;;3.05;;
49556;SDS011;35462;45.048;7.666;2023-09-07T19:02:28;6.32;;;3.17;;
49556;SDS011;35462;45.048;7.666;2023-09-07T19:17:48;6.75;;;4.07;;
49556;SDS011;35462;45.048;7.666;2023-09-07T19:33:07;5.38;;;4.28;;
49556;SDS011;35462;45.048;7.666;2023-09-07T19:48:28;6.20;;;4.13;;
49556;SDS011;35462;45.048;7.666;2023-09-07T20:03:48;10.70;;;5.03;;
49556;SDS011;35462;45.048;7.666;2023-09-07T20:19:09;12.48;;;6.35;;
49556;SDS011;35462;45.048;7.666;2023-09-07T20:34:28;8.65;;;5.65;;
49556;SDS011;35462;45.048;7.666;2023-09-07T20:49:48;14.38;;;5.72;;
49556;SDS011;35462;45.048;7.666;2023-09-07T21:05:07;7.43;;;4.47;;
49556;SDS011;35462;45.048;7.666;2023-09-07T21:20:27;6.72;;;4.80;;
49556;SDS011;35462;45.048;7.666;2023-09-07T21:35:47;7.82;;;4.57;;
49556;SDS011;35462;45.048;7.666;2023-09-07T21:51:06;7.25;;;5.05;;
49556;SDS011;35462;45.048;7.666;2023-09-07T22:06:26;8.90;;;5.70;;
49556;SDS011;35462;45.048;7.666;2023-09-07T22:21:46;10.35;;;6.03;;
49556;SDS011;35462;45.048;7.666;2023-09-07T22:37:05;8.50;;;5.80;;
49556;SDS011;35462;45.048;7.666;2023-09-07T22:52:25;15.38;;;6.80;;
49556;SDS011;35462;45.048;7.666;2023-09-07T23:07:44;8.82;;;5.45;;
49556;SDS011;35462;45.048;7.666;2023-09-07T23:23:03;9.45;;;5.05;;
49556;SDS011;35462;45.048;7.666;2023-09-07T23:38:23;6.55;;;5.43;;
49556;SDS011;35462;45.048;7.666;2023-09-07T23:53:42;11.55;;;5.78;;
